sensor_id;sensor_type;location;lat;lon;timestamp;temperature;humidity
40516;DHT22;26216;53.724;9.898;2023-02-21T00:02:32;10.10;99.90
40516;DHT22;26216;53.724;9.898;2023-02-21T00:05:17;10.10;99.90
40516;DHT22;26216;53.724;9.898;2023-02-21T00:08:01;10.10;99.90
40516;DHT22;26216;53.724;9.898;2023-02-21T00:10:46;10.10;99.90
40516;DHT22;26216;53.724;9.898;2023-02-21T00:13:30;10.20;99.90
40516;DHT22;26216;53.724;9.898;2023-02-21T00:16:16;10.20;99.90
40516;DHT22;26216;53.724;9.898;2023-02-21T00:19:01;10.20;99.90
40516;DHT22;26216;53.724;9.898;2023-02-21T00:21:45;10.20;99.90
40516;DHT22;26216;53.724;9.898;2023-02-21T00:24:30;10.20;99.90
40516;DHT22;26216;53.724;9.898;2023-02-21T00:27:14;10.10;99.90
40516;DHT22;26216;53.724;9.898;2023-02-21T00:29:58;10.20;99.90
40516;DHT22;26216;53.724;9.898;2023-02-21T00:32:43;10.10;99.90
40516;DHT22;26216;53.724;9.898;2023-02-21T00:35:27;10.10;99.90
40516;DHT22;26216;53.724;9.898;2023-02-21T00:38:11;10.20;99.90
40516;DHT22;26216;53.724;9.898;2023-02-21T00:40:56;10.10;99.90
40516;DHT22;26216;53.724;9.898;2023-02-21T00:43:41;10.10;99.90
40516;DHT22;26216;53.724;9.898;2023-02-21T00:46:25;10.10;99.90
40516;DHT22;26216;53.724;9.898;2023-02-21T00:49:10;10.10;99.90
40516;DHT22;26216;53.724;9.898;2023-02-21T00:51:54;10.10;99.90
40516;DHT22;26216;53.724;9.898;2023-02-21T00:54:38;10.10;99.90
40516;DHT22;26216;53.724;9.898;2023-02-21T00:57:23;10.10;99.90
40516;DHT22;26216;53.724;9.898;2023-02-21T01:00:13;10.10;99.90
40516;DHT22;26216;53.724;9.898;2023-02-21T01:02:58;10.10;99.90
40516;DHT22;26216;53.724;9.898;2023-02-21T01:05:42;10.00;99.90
40516;DHT22;26216;53.724;9.898;2023-02-21T01:08:27;10.10;99.90
40516;DHT22;26216;53.724;9.898;2023-02-21T01:11:18;10.00;99.90
40516;DHT22;26216;53.724;9.898;2023-02-21T01:14:03;10.10;99.90
40516;DHT22;26216;53.724;9.898;2023-02-21T01:16:48;10.10;99.90
40516;DHT22;26216;53.724;9.898;2023-02-21T01:19:32;10.10;99.90
40516;DHT22;26216;53.724;9.898;2023-02-21T01:22:17;10.20;99.90
40516;DHT22;26216;53.724;9.898;2023-02-21T01:25:01;10.20;99.90
40516;DHT22;26216;53.724;9.898;2023-02-21T01:27:46;10.10;99.90
40516;DHT22;26216;53.724;9.898;2023-02-21T01:30:30;10.10;99.90
40516;DHT22;26216;53.724;9.898;2023-02-21T01:33:14;10.10;99.90
40516;DHT22;26216;53.724;9.898;2023-02-21T01:35:59;10.10;99.90
40516;DHT22;26216;53.724;9.898;2023-02-21T01:38:43;10.10;99.90
40516;DHT22;26216;53.724;9.898;2023-02-21T01:41:27;10.10;99.90
40516;DHT22;26216;53.724;9.898;2023-02-21T01:44:36;10.10;99.90
40516;DHT22;26216;53.724;9.898;2023-02-21T01:47:22;10.10;99.90
40516;DHT22;26216;53.724;9.898;2023-02-21T01:52:58;10.10;99.90
40516;DHT22;26216;53.724;9.898;2023-02-21T01:55:43;10.10;99.90
40516;DHT22;26216;53.724;9.898;2023-02-21T01:58:29;10.00;99.90
40516;DHT22;26216;53.724;9.898;2023-02-21T02:01:26;10.10;99.90
40516;DHT22;26216;53.724;9.898;2023-02-21T02:04:12;10.00;99.90
40516;DHT22;26216;53.724;9.898;2023-02-21T02:06:56;10.10;99.90
40516;DHT22;26216;53.724;9.898;2023-02-21T02:09:41;10.10;99.90
40516;DHT22;26216;53.724;9.898;2023-02-21T02:21:33;10.10;99.90
40516;DHT22;26216;53.724;9.898;2023-02-21T02:24:21;10.20;99.90
40516;DHT22;26216;53.724;9.898;2023-02-21T02:40:31;10.00;99.90
40516;DHT22;26216;53.724;9.898;2023-02-21T02:48:37;9.90;99.90
40516;DHT22;26216;53.724;9.898;2023-02-21T02:51:11;9.90;99.90
40516;DHT22;26216;53.724;9.898;2023-02-21T02:53:38;9.90;99.90
40516;DHT22;26216;53.724;9.898;2023-02-21T02:56:13;9.90;99.90
40516;DHT22;26216;53.724;9.898;2023-02-21T02:58:57;9.90;99.90
40516;DHT22;26216;53.724;9.898;2023-02-21T03:04:43;9.90;99.90
40516;DHT22;26216;53.724;9.898;2023-02-21T03:20:37;9.80;99.90
40516;DHT22;26216;53.724;9.898;2023-02-21T03:23:04;9.80;99.90
40516;DHT22;26216;53.724;9.898;2023-02-21T03:25:32;9.80;99.90
40516;DHT22;26216;53.724;9.898;2023-02-21T03:27:59;9.80;99.90
40516;DHT22;26216;53.724;9.898;2023-02-21T03:30:27;9.90;99.90
40516;DHT22;26216;53.724;9.898;2023-02-21T03:32:54;9.80;99.90
40516;DHT22;26216;53.724;9.898;2023-02-21T03:35:21;9.90;99.90
40516;DHT22;26216;53.724;9.898;2023-02-21T03:37:49;9.80;99.90
40516;DHT22;26216;53.724;9.898;2023-02-21T03:42:52;9.80;99.90
40516;DHT22;26216;53.724;9.898;2023-02-21T03:45:18;9.80;99.90
40516;DHT22;26216;53.724;9.898;2023-02-21T03:47:44;9.70;99.90
40516;DHT22;26216;53.724;9.898;2023-02-21T03:50:10;9.70;99.90
40516;DHT22;26216;53.724;9.898;2023-02-21T03:52:36;9.70;99.90
40516;DHT22;26216;53.724;9.898;2023-02-21T03:55:03;9.60;99.90
40516;DHT22;26216;53.724;9.898;2023-02-21T03:57:29;9.70;99.90
40516;DHT22;26216;53.724;9.898;2023-02-21T03:59:55;9.60;99.90
40516;DHT22;26216;53.724;9.898;2023-02-21T04:02:21;9.60;99.90
40516;DHT22;26216;53.724;9.898;2023-02-21T04:04:47;9.70;99.90
40516;DHT22;26216;53.724;9.898;2023-02-21T04:07:15;9.60;99.90
40516;DHT22;26216;53.724;9.898;2023-02-21T04:09:41;9.60;99.90
40516;DHT22;26216;53.724;9.898;2023-02-21T04:12:07;9.70;99.90
40516;DHT22;26216;53.724;9.898;2023-02-21T04:14:33;9.70;99.90
40516;DHT22;26216;53.724;9.898;2023-02-21T04:16:59;9.70;99.90
40516;DHT22;26216;53.724;9.898;2023-02-21T04:19:25;9.60;99.90
40516;DHT22;26216;53.724;9.898;2023-02-21T04:21:51;9.60;99.90
40516;DHT22;26216;53.724;9.898;2023-02-21T04:24:17;9.70;99.90
40516;DHT22;26216;53.724;9.898;2023-02-21T04:26:43;9.70;99.90
40516;DHT22;26216;53.724;9.898;2023-02-21T04:29:09;9.70;99.90
40516;DHT22;26216;53.724;9.898;2023-02-21T04:31:37;9.60;99.90
40516;DHT22;26216;53.724;9.898;2023-02-21T04:34:03;9.60;99.90
40516;DHT22;26216;53.724;9.898;2023-02-21T04:36:29;9.60;99.90
40516;DHT22;26216;53.724;9.898;2023-02-21T04:38:55;9.60;99.90
40516;DHT22;26216;53.724;9.898;2023-02-21T04:41:22;9.60;99.90
40516;DHT22;26216;53.724;9.898;2023-02-21T04:43:48;9.60;99.90
40516;DHT22;26216;53.724;9.898;2023-02-21T04:46:15;9.50;99.90
40516;DHT22;26216;53.724;9.898;2023-02-21T04:48:43;9.60;99.90
40516;DHT22;26216;53.724;9.898;2023-02-21T04:51:10;9.60;99.90
40516;DHT22;26216;53.724;9.898;2023-02-21T04:53:36;9.60;99.90
40516;DHT22;26216;53.724;9.898;2023-02-21T04:56:03;9.60;99.90
40516;DHT22;26216;53.724;9.898;2023-02-21T04:58:28;9.70;99.90
40516;DHT22;26216;53.724;9.898;2023-02-21T05:00:54;9.60;99.90
40516;DHT22;26216;53.724;9.898;2023-02-21T05:03:20;9.60;99.90
40516;DHT22;26216;53.724;9.898;2023-02-21T05:05:46;9.60;99.90
40516;DHT22;26216;53.724;9.898;2023-02-21T05:08:12;9.60;99.90
40516;DHT22;26216;53.724;9.898;2023-02-21T05:10:38;9.60;99.90
40516;DHT22;26216;53.724;9.898;2023-02-21T05:13:04;9.60;99.90
40516;DHT22;26216;53.724;9.898;2023-02-21T05:15:30;9.60;99.90
40516;DHT22;26216;53.724;9.898;2023-02-21T05:17:56;9.50;99.90
40516;DHT22;26216;53.724;9.898;2023-02-21T05:20:21;9.50;99.90
40516;DHT22;26216;53.724;9.898;2023-02-21T05:22:48;9.50;99.90
40516;DHT22;26216;53.724;9.898;2023-02-21T05:25:19;9.50;99.90
40516;DHT22;26216;53.724;9.898;2023-02-21T05:27:45;9.50;99.90
40516;DHT22;26216;53.724;9.898;2023-02-21T05:30:13;9.40;99.90
40516;DHT22;26216;53.724;9.898;2023-02-21T05:32:39;9.40;99.90
40516;DHT22;26216;53.724;9.898;2023-02-21T05:35:06;9.40;99.90
40516;DHT22;26216;53.724;9.898;2023-02-21T05:37:32;9.40;99.90
40516;DHT22;26216;53.724;9.898;2023-02-21T05:39:58;9.40;99.90
40516;DHT22;26216;53.724;9.898;2023-02-21T05:42:24;9.40;99.90
40516;DHT22;26216;53.724;9.898;2023-02-21T05:44:50;9.40;99.90
40516;DHT22;26216;53.724;9.898;2023-02-21T05:47:16;9.40;99.90
40516;DHT22;26216;53.724;9.898;2023-02-21T05:49:45;9.30;99.90
40516;DHT22;26216;53.724;9.898;2023-02-21T05:52:13;9.30;99.90
40516;DHT22;26216;53.724;9.898;2023-02-21T05:54:39;9.30;99.90
40516;DHT22;26216;53.724;9.898;2023-02-21T05:57:05;9.30;99.90
40516;DHT22;26216;53.724;9.898;2023-02-21T05:59:31;9.30;99.90
40516;DHT22;26216;53.724;9.898;2023-02-21T06:01:57;9.30;99.90
40516;DHT22;26216;53.724;9.898;2023-02-21T06:04:23;9.30;99.90
40516;DHT22;26216;53.724;9.898;2023-02-21T06:06:49;9.30;99.90
40516;DHT22;26216;53.724;9.898;2023-02-21T06:09:16;9.30;99.90
40516;DHT22;26216;53.724;9.898;2023-02-21T06:11:43;9.30;99.90
40516;DHT22;26216;53.724;9.898;2023-02-21T06:14:17;9.30;99.90
40516;DHT22;26216;53.724;9.898;2023-02-21T06:16:45;9.20;99.90
40516;DHT22;26216;53.724;9.898;2023-02-21T06:19:12;9.20;99.90
40516;DHT22;26216;53.724;9.898;2023-02-21T06:21:39;9.20;99.90
40516;DHT22;26216;53.724;9.898;2023-02-21T06:24:09;9.20;99.90
40516;DHT22;26216;53.724;9.898;2023-02-21T06:26:35;9.20;99.90
40516;DHT22;26216;53.724;9.898;2023-02-21T06:29:06;9.20;99.90
40516;DHT22;26216;53.724;9.898;2023-02-21T06:31:32;9.20;99.90
40516;DHT22;26216;53.724;9.898;2023-02-21T06:33:58;9.20;99.90
40516;DHT22;26216;53.724;9.898;2023-02-21T06:36:26;9.20;99.90
40516;DHT22;26216;53.724;9.898;2023-02-21T06:38:54;9.20;99.90
40516;DHT22;26216;53.724;9.898;2023-02-21T06:41:30;9.20;99.90
40516;DHT22;26216;53.724;9.898;2023-02-21T06:43:57;9.20;99.90
40516;DHT22;26216;53.724;9.898;2023-02-21T06:46:25;9.20;99.90
40516;DHT22;26216;53.724;9.898;2023-02-21T06:48:52;9.20;99.90
40516;DHT22;26216;53.724;9.898;2023-02-21T06:51:18;9.20;99.90
40516;DHT22;26216;53.724;9.898;2023-02-21T06:53:47;9.20;99.90
40516;DHT22;26216;53.724;9.898;2023-02-21T06:56:14;9.20;99.90
40516;DHT22;26216;53.724;9.898;2023-02-21T06:58:40;9.20;99.90
40516;DHT22;26216;53.724;9.898;2023-02-21T07:01:06;9.20;99.90
40516;DHT22;26216;53.724;9.898;2023-02-21T07:03:31;9.10;99.90
40516;DHT22;26216;53.724;9.898;2023-02-21T07:05:57;9.10;99.90
40516;DHT22;26216;53.724;9.898;2023-02-21T07:08:23;9.10;99.90
40516;DHT22;26216;53.724;9.898;2023-02-21T07:10:50;9.10;99.90
40516;DHT22;26216;53.724;9.898;2023-02-21T07:13:16;9.10;99.90
40516;DHT22;26216;53.724;9.898;2023-02-21T07:15:42;9.10;99.90
40516;DHT22;26216;53.724;9.898;2023-02-21T07:18:08;9.10;99.90
40516;DHT22;26216;53.724;9.898;2023-02-21T07:20:34;9.10;99.90
40516;DHT22;26216;53.724;9.898;2023-02-21T07:23:00;9.20;99.90
40516;DHT22;26216;53.724;9.898;2023-02-21T07:25:25;9.20;99.90
40516;DHT22;26216;53.724;9.898;2023-02-21T07:27:51;9.20;99.90
40516;DHT22;26216;53.724;9.898;2023-02-21T07:30:17;9.30;99.90
40516;DHT22;26216;53.724;9.898;2023-02-21T07:32:43;9.30;99.90
40516;DHT22;26216;53.724;9.898;2023-02-21T07:35:09;9.30;99.90
40516;DHT22;26216;53.724;9.898;2023-02-21T07:37:35;9.30;99.90
40516;DHT22;26216;53.724;9.898;2023-02-21T07:40:01;9.30;99.90
40516;DHT22;26216;53.724;9.898;2023-02-21T07:42:27;9.30;99.90
40516;DHT22;26216;53.724;9.898;2023-02-21T07:44:57;9.30;99.90
40516;DHT22;26216;53.724;9.898;2023-02-21T07:47:24;9.30;99.90
40516;DHT22;26216;53.724;9.898;2023-02-21T07:49:50;9.40;99.90
40516;DHT22;26216;53.724;9.898;2023-02-21T07:52:19;9.30;99.90
40516;DHT22;26216;53.724;9.898;2023-02-21T07:54:45;9.40;99.90
40516;DHT22;26216;53.724;9.898;2023-02-21T07:57:11;9.40;99.90
40516;DHT22;26216;53.724;9.898;2023-02-21T07:59:37;9.40;99.90
40516;DHT22;26216;53.724;9.898;2023-02-21T08:02:04;9.40;99.90
40516;DHT22;26216;53.724;9.898;2023-02-21T08:04:30;9.40;99.90
40516;DHT22;26216;53.724;9.898;2023-02-21T08:07:00;9.40;99.90
40516;DHT22;26216;53.724;9.898;2023-02-21T08:09:26;9.50;99.90
40516;DHT22;26216;53.724;9.898;2023-02-21T08:11:52;9.40;99.90
40516;DHT22;26216;53.724;9.898;2023-02-21T08:14:18;9.50;99.90
40516;DHT22;26216;53.724;9.898;2023-02-21T08:16:44;9.50;99.90
40516;DHT22;26216;53.724;9.898;2023-02-21T08:19:10;9.50;99.90
40516;DHT22;26216;53.724;9.898;2023-02-21T08:21:36;9.60;99.90
40516;DHT22;26216;53.724;9.898;2023-02-21T08:24:08;9.60;99.90
40516;DHT22;26216;53.724;9.898;2023-02-21T08:26:34;9.70;99.90
40516;DHT22;26216;53.724;9.898;2023-02-21T08:29:00;9.80;99.90
40516;DHT22;26216;53.724;9.898;2023-02-21T08:31:26;9.80;99.90
40516;DHT22;26216;53.724;9.898;2023-02-21T08:33:53;9.90;99.90
40516;DHT22;26216;53.724;9.898;2023-02-21T08:36:19;9.90;99.90
40516;DHT22;26216;53.724;9.898;2023-02-21T08:38:45;9.90;99.90
40516;DHT22;26216;53.724;9.898;2023-02-21T08:41:11;10.00;99.90
40516;DHT22;26216;53.724;9.898;2023-02-21T08:43:37;10.00;99.90
40516;DHT22;26216;53.724;9.898;2023-02-21T08:46:03;10.00;99.90
40516;DHT22;26216;53.724;9.898;2023-02-21T08:48:29;10.00;99.90
40516;DHT22;26216;53.724;9.898;2023-02-21T08:50:55;10.00;99.90
40516;DHT22;26216;53.724;9.898;2023-02-21T08:53:21;10.00;99.90
40516;DHT22;26216;53.724;9.898;2023-02-21T08:55:46;10.00;99.90
40516;DHT22;26216;53.724;9.898;2023-02-21T08:58:12;10.00;99.90
40516;DHT22;26216;53.724;9.898;2023-02-21T09:00:38;10.00;99.90
40516;DHT22;26216;53.724;9.898;2023-02-21T09:03:04;10.10;99.90
40516;DHT22;26216;53.724;9.898;2023-02-21T09:05:31;10.20;99.90
40516;DHT22;26216;53.724;9.898;2023-02-21T09:08:00;10.20;99.90
40516;DHT22;26216;53.724;9.898;2023-02-21T09:10:28;10.20;99.90
40516;DHT22;26216;53.724;9.898;2023-02-21T09:12:54;10.20;99.90
40516;DHT22;26216;53.724;9.898;2023-02-21T09:15:20;10.20;99.90
40516;DHT22;26216;53.724;9.898;2023-02-21T09:17:46;10.30;99.90
40516;DHT22;26216;53.724;9.898;2023-02-21T09:20:17;10.30;99.90
40516;DHT22;26216;53.724;9.898;2023-02-21T09:22:44;10.30;99.90
40516;DHT22;26216;53.724;9.898;2023-02-21T09:25:11;10.30;99.90
40516;DHT22;26216;53.724;9.898;2023-02-21T09:27:40;10.40;99.90
40516;DHT22;26216;53.724;9.898;2023-02-21T09:30:15;10.40;99.90
40516;DHT22;26216;53.724;9.898;2023-02-21T09:32:41;10.40;99.90
40516;DHT22;26216;53.724;9.898;2023-02-21T09:35:09;10.40;99.90
40516;DHT22;26216;53.724;9.898;2023-02-21T09:37:39;10.50;99.90
40516;DHT22;26216;53.724;9.898;2023-02-21T09:42:54;10.60;99.90
40516;DHT22;26216;53.724;9.898;2023-02-21T09:45:30;10.60;99.90
40516;DHT22;26216;53.724;9.898;2023-02-21T09:48:00;10.70;99.90
40516;DHT22;26216;53.724;9.898;2023-02-21T09:50:28;10.80;99.90
40516;DHT22;26216;53.724;9.898;2023-02-21T09:52:59;10.80;99.90
40516;DHT22;26216;53.724;9.898;2023-02-21T09:55:36;10.90;99.90
40516;DHT22;26216;53.724;9.898;2023-02-21T09:58:10;10.90;99.90
40516;DHT22;26216;53.724;9.898;2023-02-21T10:00:37;11.00;99.90
40516;DHT22;26216;53.724;9.898;2023-02-21T10:06:23;11.10;99.90
40516;DHT22;26216;53.724;9.898;2023-02-21T10:09:24;11.10;99.90
40516;DHT22;26216;53.724;9.898;2023-02-21T10:12:03;11.20;99.90
40516;DHT22;26216;53.724;9.898;2023-02-21T10:14:46;11.20;99.90
40516;DHT22;26216;53.724;9.898;2023-02-21T10:20:14;11.30;99.90
40516;DHT22;26216;53.724;9.898;2023-02-21T10:22:45;11.30;99.90
40516;DHT22;26216;53.724;9.898;2023-02-21T10:25:27;11.20;99.90
40516;DHT22;26216;53.724;9.898;2023-02-21T10:27:54;11.20;99.90
40516;DHT22;26216;53.724;9.898;2023-02-21T10:30:34;11.20;99.90
40516;DHT22;26216;53.724;9.898;2023-02-21T10:33:01;11.30;99.90
40516;DHT22;26216;53.724;9.898;2023-02-21T10:35:36;11.30;99.90
40516;DHT22;26216;53.724;9.898;2023-02-21T10:38:06;11.30;99.90
40516;DHT22;26216;53.724;9.898;2023-02-21T10:40:39;11.40;99.90
40516;DHT22;26216;53.724;9.898;2023-02-21T10:43:12;11.40;99.90
40516;DHT22;26216;53.724;9.898;2023-02-21T10:48:27;11.40;99.90
40516;DHT22;26216;53.724;9.898;2023-02-21T10:51:10;11.40;99.90
40516;DHT22;26216;53.724;9.898;2023-02-21T10:53:44;11.40;99.90
40516;DHT22;26216;53.724;9.898;2023-02-21T10:58:53;11.50;99.90
40516;DHT22;26216;53.724;9.898;2023-02-21T11:04:05;11.60;99.90
40516;DHT22;26216;53.724;9.898;2023-02-21T11:06:34;11.70;99.90
40516;DHT22;26216;53.724;9.898;2023-02-21T11:14:28;11.60;99.90
40516;DHT22;26216;53.724;9.898;2023-02-21T11:17:08;11.70;99.90
40516;DHT22;26216;53.724;9.898;2023-02-21T11:19:48;11.70;99.90
40516;DHT22;26216;53.724;9.898;2023-02-21T11:22:16;11.80;99.90
40516;DHT22;26216;53.724;9.898;2023-02-21T11:27:37;11.80;99.90
40516;DHT22;26216;53.724;9.898;2023-02-21T11:30:17;11.80;99.90
40516;DHT22;26216;53.724;9.898;2023-02-21T11:32:53;11.90;99.90
40516;DHT22;26216;53.724;9.898;2023-02-21T11:40:51;12.00;99.90
40516;DHT22;26216;53.724;9.898;2023-02-21T11:43:25;12.00;99.90
40516;DHT22;26216;53.724;9.898;2023-02-21T11:52:07;12.00;99.90
40516;DHT22;26216;53.724;9.898;2023-02-21T11:54:14;12.00;99.90
40516;DHT22;26216;53.724;9.898;2023-02-21T12:18:44;12.10;99.90
40516;DHT22;26216;53.724;9.898;2023-02-21T12:24:13;12.10;99.90
40516;DHT22;26216;53.724;9.898;2023-02-21T12:26:54;12.10;99.90
40516;DHT22;26216;53.724;9.898;2023-02-21T12:41:11;12.20;99.90
40516;DHT22;26216;53.724;9.898;2023-02-21T12:43:51;12.30;99.90
40516;DHT22;26216;53.724;9.898;2023-02-21T12:49:41;12.30;99.90
40516;DHT22;26216;53.724;9.898;2023-02-21T12:52:25;12.30;99.90
40516;DHT22;26216;53.724;9.898;2023-02-21T12:55:25;12.40;99.90
40516;DHT22;26216;53.724;9.898;2023-02-21T13:00:39;12.40;99.90
40516;DHT22;26216;53.724;9.898;2023-02-21T13:06:15;12.40;99.90
40516;DHT22;26216;53.724;9.898;2023-02-21T13:11:20;12.30;99.90
40516;DHT22;26216;53.724;9.898;2023-02-21T13:13:46;12.20;99.90
40516;DHT22;26216;53.724;9.898;2023-02-21T13:16:13;12.20;99.90
40516;DHT22;26216;53.724;9.898;2023-02-21T13:18:48;12.20;99.90
40516;DHT22;26216;53.724;9.898;2023-02-21T13:21:48;12.20;99.90
40516;DHT22;26216;53.724;9.898;2023-02-21T13:24:53;12.10;99.90
40516;DHT22;26216;53.724;9.898;2023-02-21T13:30:44;12.10;99.90
40516;DHT22;26216;53.724;9.898;2023-02-21T13:33:01;12.10;99.90
40516;DHT22;26216;53.724;9.898;2023-02-21T13:35:33;12.10;99.90
40516;DHT22;26216;53.724;9.898;2023-02-21T13:38:01;12.00;99.90
40516;DHT22;26216;53.724;9.898;2023-02-21T13:43:11;12.00;99.90
40516;DHT22;26216;53.724;9.898;2023-02-21T13:45:38;12.10;99.90
40516;DHT22;26216;53.724;9.898;2023-02-21T13:53:25;12.10;99.90
40516;DHT22;26216;53.724;9.898;2023-02-21T13:58:37;12.20;99.90
40516;DHT22;26216;53.724;9.898;2023-02-21T14:01:19;12.20;99.90
40516;DHT22;26216;53.724;9.898;2023-02-21T14:03:50;12.20;99.90
40516;DHT22;26216;53.724;9.898;2023-02-21T14:06:23;12.20;99.90
40516;DHT22;26216;53.724;9.898;2023-02-21T14:08:53;12.20;99.90
40516;DHT22;26216;53.724;9.898;2023-02-21T14:11:25;12.20;99.90
40516;DHT22;26216;53.724;9.898;2023-02-21T14:14:47;12.20;99.90
40516;DHT22;26216;53.724;9.898;2023-02-21T14:17:03;12.20;99.90
40516;DHT22;26216;53.724;9.898;2023-02-21T14:22:15;12.30;99.90
40516;DHT22;26216;53.724;9.898;2023-02-21T14:24:49;12.30;99.90
40516;DHT22;26216;53.724;9.898;2023-02-21T14:29:45;12.20;99.90
40516;DHT22;26216;53.724;9.898;2023-02-21T14:32:49;12.20;99.90
40516;DHT22;26216;53.724;9.898;2023-02-21T14:57:46;12.20;99.90
40516;DHT22;26216;53.724;9.898;2023-02-21T15:03:27;12.20;99.90
40516;DHT22;26216;53.724;9.898;2023-02-21T15:06:04;12.20;99.90
40516;DHT22;26216;53.724;9.898;2023-02-21T15:08:40;12.20;99.90
40516;DHT22;26216;53.724;9.898;2023-02-21T15:11:18;12.10;99.90
40516;DHT22;26216;53.724;9.898;2023-02-21T15:13:46;12.00;99.90
40516;DHT22;26216;53.724;9.898;2023-02-21T15:16:13;12.00;99.90
40516;DHT22;26216;53.724;9.898;2023-02-21T15:18:59;11.90;99.90
40516;DHT22;26216;53.724;9.898;2023-02-21T15:21:26;11.90;99.90
40516;DHT22;26216;53.724;9.898;2023-02-21T15:24:12;11.90;99.90
40516;DHT22;26216;53.724;9.898;2023-02-21T15:26:38;11.90;99.90
40516;DHT22;26216;53.724;9.898;2023-02-21T15:29:17;11.80;99.90
40516;DHT22;26216;53.724;9.898;2023-02-21T15:31:48;11.80;99.90
40516;DHT22;26216;53.724;9.898;2023-02-21T15:34:26;11.80;99.90
40516;DHT22;26216;53.724;9.898;2023-02-21T15:37:20;11.70;99.90
40516;DHT22;26216;53.724;9.898;2023-02-21T15:40:04;11.70;99.90
40516;DHT22;26216;53.724;9.898;2023-02-21T15:42:39;11.60;99.90
40516;DHT22;26216;53.724;9.898;2023-02-21T15:45:29;11.60;99.90
40516;DHT22;26216;53.724;9.898;2023-02-21T15:47:57;11.60;99.90
40516;DHT22;26216;53.724;9.898;2023-02-21T15:50:44;11.60;99.90
40516;DHT22;26216;53.724;9.898;2023-02-21T15:53:17;11.50;99.90
40516;DHT22;26216;53.724;9.898;2023-02-21T15:55:44;11.50;99.90
40516;DHT22;26216;53.724;9.898;2023-02-21T15:58:18;11.40;99.90
40516;DHT22;26216;53.724;9.898;2023-02-21T16:01:01;11.40;99.90
40516;DHT22;26216;53.724;9.898;2023-02-21T16:03:43;11.40;99.90
40516;DHT22;26216;53.724;9.898;2023-02-21T16:06:12;11.40;99.90
40516;DHT22;26216;53.724;9.898;2023-02-21T16:08:53;11.30;99.90
40516;DHT22;26216;53.724;9.898;2023-02-21T16:11:47;11.30;99.90
40516;DHT22;26216;53.724;9.898;2023-02-21T16:14:32;11.20;99.90
40516;DHT22;26216;53.724;9.898;2023-02-21T16:19:39;11.10;99.90
40516;DHT22;26216;53.724;9.898;2023-02-21T16:22:27;11.10;99.90
40516;DHT22;26216;53.724;9.898;2023-02-21T16:25:26;11.10;99.90
40516;DHT22;26216;53.724;9.898;2023-02-21T16:27:57;11.10;99.90
40516;DHT22;26216;53.724;9.898;2023-02-21T16:30:29;11.10;99.90
40516;DHT22;26216;53.724;9.898;2023-02-21T16:33:01;11.10;99.90
40516;DHT22;26216;53.724;9.898;2023-02-21T16:35:28;11.10;99.90
40516;DHT22;26216;53.724;9.898;2023-02-21T16:37:56;11.10;99.90
40516;DHT22;26216;53.724;9.898;2023-02-21T16:40:28;11.10;99.90
40516;DHT22;26216;53.724;9.898;2023-02-21T16:42:55;11.00;99.90
40516;DHT22;26216;53.724;9.898;2023-02-21T16:45:22;11.00;99.90
40516;DHT22;26216;53.724;9.898;2023-02-21T16:47:53;11.00;99.90
40516;DHT22;26216;53.724;9.898;2023-02-21T16:52:52;11.00;99.90
40516;DHT22;26216;53.724;9.898;2023-02-21T16:55:18;11.00;99.90
40516;DHT22;26216;53.724;9.898;2023-02-21T16:57:49;11.00;99.90
40516;DHT22;26216;53.724;9.898;2023-02-21T17:00:18;11.00;99.90
40516;DHT22;26216;53.724;9.898;2023-02-21T17:02:48;11.00;99.90
40516;DHT22;26216;53.724;9.898;2023-02-21T17:05:15;11.00;99.90
40516;DHT22;26216;53.724;9.898;2023-02-21T17:07:42;11.00;99.90
40516;DHT22;26216;53.724;9.898;2023-02-21T17:10:10;11.00;99.90
40516;DHT22;26216;53.724;9.898;2023-02-21T17:12:36;10.90;99.90
40516;DHT22;26216;53.724;9.898;2023-02-21T17:15:02;10.90;99.90
40516;DHT22;26216;53.724;9.898;2023-02-21T17:17:28;10.90;99.90
40516;DHT22;26216;53.724;9.898;2023-02-21T17:19:54;10.90;99.90
40516;DHT22;26216;53.724;9.898;2023-02-21T17:22:20;10.80;99.90
40516;DHT22;26216;53.724;9.898;2023-02-21T17:24:46;10.90;99.90
40516;DHT22;26216;53.724;9.898;2023-02-21T17:27:13;10.90;99.90
40516;DHT22;26216;53.724;9.898;2023-02-21T17:29:39;10.80;99.90
40516;DHT22;26216;53.724;9.898;2023-02-21T17:32:05;10.80;99.90
40516;DHT22;26216;53.724;9.898;2023-02-21T17:34:35;10.80;99.90
40516;DHT22;26216;53.724;9.898;2023-02-21T17:37:02;10.80;99.90
40516;DHT22;26216;53.724;9.898;2023-02-21T17:39:29;10.80;99.90
40516;DHT22;26216;53.724;9.898;2023-02-21T17:41:55;10.80;99.90
40516;DHT22;26216;53.724;9.898;2023-02-21T17:44:22;10.80;99.90
40516;DHT22;26216;53.724;9.898;2023-02-21T17:46:51;10.70;99.90
40516;DHT22;26216;53.724;9.898;2023-02-21T17:49:20;10.70;99.90
40516;DHT22;26216;53.724;9.898;2023-02-21T17:51:46;10.70;99.90
40516;DHT22;26216;53.724;9.898;2023-02-21T17:54:21;10.80;99.90
40516;DHT22;26216;53.724;9.898;2023-02-21T17:56:48;10.70;99.90
40516;DHT22;26216;53.724;9.898;2023-02-21T17:59:16;10.70;99.90
40516;DHT22;26216;53.724;9.898;2023-02-21T18:01:42;10.70;99.90
40516;DHT22;26216;53.724;9.898;2023-02-21T18:04:09;10.80;99.90
40516;DHT22;26216;53.724;9.898;2023-02-21T18:06:35;10.70;99.90
40516;DHT22;26216;53.724;9.898;2023-02-21T18:09:03;10.70;99.90
40516;DHT22;26216;53.724;9.898;2023-02-21T18:11:30;10.70;99.90
40516;DHT22;26216;53.724;9.898;2023-02-21T18:13:56;10.70;99.90
40516;DHT22;26216;53.724;9.898;2023-02-21T18:16:22;10.70;99.90
40516;DHT22;26216;53.724;9.898;2023-02-21T18:18:49;10.70;99.90
40516;DHT22;26216;53.724;9.898;2023-02-21T18:21:16;10.70;99.90
40516;DHT22;26216;53.724;9.898;2023-02-21T18:23:43;10.60;99.90
40516;DHT22;26216;53.724;9.898;2023-02-21T18:26:10;10.60;99.90
40516;DHT22;26216;53.724;9.898;2023-02-21T18:28:36;10.60;99.90
40516;DHT22;26216;53.724;9.898;2023-02-21T18:31:02;10.60;99.90
40516;DHT22;26216;53.724;9.898;2023-02-21T18:33:29;10.60;99.90
40516;DHT22;26216;53.724;9.898;2023-02-21T18:35:57;10.60;99.90
40516;DHT22;26216;53.724;9.898;2023-02-21T18:38:24;10.60;99.90
40516;DHT22;26216;53.724;9.898;2023-02-21T18:40:52;10.70;99.90
40516;DHT22;26216;53.724;9.898;2023-02-21T18:43:24;10.70;99.90
40516;DHT22;26216;53.724;9.898;2023-02-21T18:45:53;10.70;99.90
40516;DHT22;26216;53.724;9.898;2023-02-21T18:48:21;10.60;99.90
40516;DHT22;26216;53.724;9.898;2023-02-21T18:50:47;10.70;99.90
40516;DHT22;26216;53.724;9.898;2023-02-21T18:53:15;10.70;99.90
40516;DHT22;26216;53.724;9.898;2023-02-21T18:55:41;10.70;99.90
40516;DHT22;26216;53.724;9.898;2023-02-21T18:58:07;10.70;99.90
40516;DHT22;26216;53.724;9.898;2023-02-21T19:00:34;10.70;99.90
40516;DHT22;26216;53.724;9.898;2023-02-21T19:03:06;10.70;99.90
40516;DHT22;26216;53.724;9.898;2023-02-21T19:05:33;10.80;99.90
40516;DHT22;26216;53.724;9.898;2023-02-21T19:08:00;10.70;99.90
40516;DHT22;26216;53.724;9.898;2023-02-21T19:10:28;10.80;99.90
40516;DHT22;26216;53.724;9.898;2023-02-21T19:12:55;10.80;99.90